Time;durP1;ratioP1;P1;durP2;ratioP2;P2;SDS_P1;SDS_P2;PMS_P1;PMS_P2;Temp;Humidity;BMP_temperature;BMP_pressure;BME280_temperature;BME280_humidity;BME280_pressure;Samples;Min_cycle;Max_cycle;Signal;HPM_P1;HPM_P2
2022/08/28 00:01:07;;;;;;;15.70;9.52;;;;;;;;;;6153068;28;20027;-84
2022/08/28 00:04:07;;;;;;;13.73;9.23;;;;;;;;;;6171960;28;20062;-84
2022/08/28 00:07:07;;;;;;;13.83;8.93;;;;;;;;;;6164585;28;20051;-84
2022/08/28 00:10:08;;;;;;;16.67;10.43;;;;;;;;;;6154948;28;20026;-84
2022/08/28 00:13:14;;;;;;;14.88;9.23;;;;;;;;;;6171738;28;20029;-84
2022/08/28 00:16:16;;;;;;;17.40;10.20;;;;;;;;;;6154766;28;20114;-84
2022/08/28 00:19:17;;;;;;;14.43;9.63;;;;;;;;;;6158541;28;20133;-83
2022/08/28 00:22:18;;;;;;;13.63;9.57;;;;;;;;;;6175979;28;20041;-84
2022/08/28 00:25:19;;;;;;;13.73;9.33;;;;;;;;;;6158678;28;20022;-84
2022/08/28 00:28:19;;;;;;;15.27;9.40;;;;;;;;;;6176395;28;20023;-84
2022/08/28 00:31:19;;;;;;;13.40;10.50;;;;;;;;;;6165915;28;20011;-83
2022/08/28 00:34:19;;;;;;;16.57;10.70;;;;;;;;;;6166944;28;20034;-84
2022/08/28 00:37:19;;;;;;;15.80;10.20;;;;;;;;;;6175686;28;20113;-84
2022/08/28 00:40:20;;;;;;;16.37;8.93;;;;;;;;;;6176106;28;20489;-83
2022/08/28 00:43:24;;;;;;;17.98;9.75;;;;;;;;;;6156351;28;20068;-84
2022/08/28 00:46:24;;;;;;;16.58;9.57;;;;;;;;;;6156364;28;20030;-83
2022/08/28 00:49:26;;;;;;;15.50;8.82;;;;;;;;;;6157770;28;20015;-84
2022/08/28 00:52:26;;;;;;;13.50;9.20;;;;;;;;;;6175450;28;20474;-83
2022/08/28 00:55:27;;;;;;;19.30;9.43;;;;;;;;;;6153351;28;20068;-84
2022/08/28 00:58:27;;;;;;;18.80;9.50;;;;;;;;;;6157959;28;20073;-84
2022/08/28 01:01:28;;;;;;;15.37;9.77;;;;;;;;;;6173966;28;20031;-83
2022/08/28 01:04:31;;;;;;;15.80;9.73;;;;;;;;;;6175287;28;20055;-84
2022/08/28 01:07:31;;;;;;;23.65;10.13;;;;;;;;;;6158246;28;20050;-84
2022/08/28 01:10:32;;;;;;;13.00;10.17;;;;;;;;;;6175342;28;20023;-84
2022/08/28 01:13:35;;;;;;;13.45;9.38;;;;;;;;;;6169335;28;20023;-84
2022/08/28 01:16:35;;;;;;;14.57;10.55;;;;;;;;;;6170858;28;20026;-84
2022/08/28 01:19:47;;;;;;;15.17;8.93;;;;;;;;;;6155966;28;20026;-84
2022/08/28 01:22:47;;;;;;;15.63;9.85;;;;;;;;;;6156134;28;20050;-84
2022/08/28 01:25:48;;;;;;;15.53;9.80;;;;;;;;;;6174907;28;20031;-84
2022/08/28 01:28:48;;;;;;;15.43;10.13;;;;;;;;;;6171602;28;20394;-84
2022/08/28 01:31:48;;;;;;;19.20;11.20;;;;;;;;;;6149447;28;20057;-84
2022/08/28 01:34:48;;;;;;;18.85;11.05;;;;;;;;;;6156119;28;20379;-84
2022/08/28 01:37:49;;;;;;;19.80;9.83;;;;;;;;;;6174355;28;20034;-84
2022/08/28 01:40:51;;;;;;;17.17;9.00;;;;;;;;;;6173250;28;20023;-84
2022/08/28 01:43:52;;;;;;;15.98;10.35;;;;;;;;;;6153741;28;20023;-84
2022/08/28 01:46:54;;;;;;;19.90;11.55;;;;;;;;;;6156204;28;20097;-83
2022/08/28 01:49:55;;;;;;;25.90;11.98;;;;;;;;;;6157220;28;20106;-84
2022/08/28 01:52:55;;;;;;;19.57;11.50;;;;;;;;;;6174529;28;20386;-84
2022/08/28 01:55:57;;;;;;;18.50;11.30;;;;;;;;;;6173332;28;20482;-83
2022/08/28 01:58:57;;;;;;;14.68;10.40;;;;;;;;;;6173204;28;20073;-83
2022/08/28 02:01:57;;;;;;;15.53;10.50;;;;;;;;;;6172891;28;20109;-84
2022/08/28 02:04:58;;;;;;;14.20;10.97;;;;;;;;;;6174540;28;20023;-84
2022/08/28 02:07:59;;;;;;;17.40;10.63;;;;;;;;;;6173133;28;20686;-84
2022/08/28 02:10:59;;;;;;;19.27;11.68;;;;;;;;;;6156115;28;20115;-83
2022/08/28 02:14:00;;;;;;;21.83;11.20;;;;;;;;;;6156715;28;20046;-84
2022/08/28 02:17:00;;;;;;;17.80;10.90;;;;;;;;;;6156301;28;20478;-84
2022/08/28 02:20:00;;;;;;;22.53;12.30;;;;;;;;;;6156046;28;20014;-84
2022/08/28 02:23:00;;;;;;;16.73;10.77;;;;;;;;;;6173634;28;20042;-84
2022/08/28 02:26:01;;;;;;;19.83;11.07;;;;;;;;;;6172855;28;20037;-83
2022/08/28 02:29:02;;;;;;;20.70;10.80;;;;;;;;;;6173134;28;20018;-84
2022/08/28 02:32:04;;;;;;;20.03;11.87;;;;;;;;;;6172945;28;20078;-84
2022/08/28 02:35:05;;;;;;;16.33;9.88;;;;;;;;;;6155292;28;20031;-84
2022/08/28 02:38:06;;;;;;;14.88;10.32;;;;;;;;;;6155296;28;20356;-84
2022/08/28 02:41:06;;;;;;;14.83;10.77;;;;;;;;;;6173306;28;20046;-84
2022/08/28 02:44:06;;;;;;;15.60;9.47;;;;;;;;;;6173727;28;20113;-84
2022/08/28 02:47:07;;;;;;;16.02;9.60;;;;;;;;;;6155870;28;20030;-84
2022/08/28 02:50:07;;;;;;;19.47;12.03;;;;;;;;;;6155528;28;20027;-84
2022/08/28 02:53:10;;;;;;;20.00;10.07;;;;;;;;;;6155139;28;20058;-84
2022/08/28 02:56:11;;;;;;;18.15;11.55;;;;;;;;;;6155848;28;20023;-84
2022/08/28 02:59:12;;;;;;;19.47;11.50;;;;;;;;;;6172045;28;20066;-84
2022/08/28 03:02:12;;;;;;;19.05;11.77;;;;;;;;;;6171748;28;20411;-84
2022/08/28 03:05:14;;;;;;;15.83;10.63;;;;;;;;;;6153991;28;20027;-84
2022/08/28 03:08:14;;;;;;;;;;;;;;;;;;6155077;28;20690;-84
2022/08/28 03:11:15;;;;;;;17.55;11.75;;;;;;;;;;6170940;28;19982;-84
2022/08/28 03:14:15;;;;;;;14.17;10.90;;;;;;;;;;6154183;28;20486;-84
2022/08/28 03:17:15;;;;;;;16.52;11.18;;;;;;;;;;6154795;28;20386;-84
2022/08/28 03:20:15;;;;;;;22.70;12.03;;;;;;;;;;6155451;28;20114;-84
2022/08/28 03:23:25;;;;;;;15.07;11.20;;;;;;;;;;6154420;28;20414;-84
2022/08/28 03:26:25;;;;;;;18.10;11.98;;;;;;;;;;6166833;28;20085;-85
2022/08/28 03:29:25;;;;;;;17.10;11.07;;;;;;;;;;6164442;28;20020;-84
2022/08/28 03:32:25;;;;;;;20.07;11.53;;;;;;;;;;6169858;28;20138;-84
2022/08/28 03:35:26;;;;;;;15.83;11.43;;;;;;;;;;6152074;28;20598;-84
2022/08/28 03:38:26;;;;;;;14.70;11.50;;;;;;;;;;6154093;28;20026;-84
2022/08/28 03:41:28;;;;;;;20.17;12.40;;;;;;;;;;6169944;28;20038;-84
2022/08/28 03:44:28;;;;;;;17.10;11.93;;;;;;;;;;6146010;28;20073;-84
2022/08/28 03:47:28;;;;;;;16.90;10.77;;;;;;;;;;6149227;28;20026;-84
2022/08/28 03:50:28;;;;;;;20.27;12.00;;;;;;;;;;6166831;28;20475;-84
2022/08/28 03:53:29;;;;;;;18.33;10.63;;;;;;;;;;6151742;28;20715;-84
2022/08/28 03:56:29;;;;;;;16.57;10.90;;;;;;;;;;6171060;28;20162;-84
2022/08/28 03:59:29;;;;;;;19.73;10.33;;;;;;;;;;6152400;28;20134;-84
2022/08/28 04:02:30;;;;;;;18.50;11.10;;;;;;;;;;6169028;28;20033;-84
2022/08/28 04:05:30;;;;;;;24.77;12.17;;;;;;;;;;6171094;28;20607;-84
2022/08/28 04:08:30;;;;;;;18.67;12.47;;;;;;;;;;6169462;28;20026;-84
2022/08/28 04:11:35;;;;;;;17.97;11.50;;;;;;;;;;6170515;28;20073;-84
2022/08/28 04:14:36;;;;;;;19.27;12.57;;;;;;;;;;6153592;28;20042;-84
2022/08/28 04:17:38;;;;;;;23.63;13.00;;;;;;;;;;6152672;28;20106;-84
2022/08/28 04:20:38;;;;;;;17.35;11.63;;;;;;;;;;6154090;28;20530;-84
2022/08/28 04:23:41;;;;;;;25.53;13.73;;;;;;;;;;6166067;28;20093;-84
2022/08/28 04:26:42;;;;;;;22.13;13.68;;;;;;;;;;6170736;28;20509;-84
2022/08/28 04:29:42;;;;;;;22.02;11.27;;;;;;;;;;6149270;28;20015;-84
2022/08/28 04:32:42;;;;;;;18.10;10.90;;;;;;;;;;6171078;28;20054;-84
2022/08/28 04:35:42;;;;;;;18.10;11.37;;;;;;;;;;6171339;28;20038;-84
2022/08/28 04:38:43;;;;;;;18.37;11.77;;;;;;;;;;6167819;28;20438;-84
2022/08/28 04:41:43;;;;;;;18.80;11.73;;;;;;;;;;6168578;28;20019;-84
2022/08/28 04:44:43;;;;;;;19.23;11.97;;;;;;;;;;6170344;28;20082;-84
2022/08/28 04:47:44;;;;;;;18.80;11.87;;;;;;;;;;6153348;28;20130;-84
2022/08/28 04:50:45;;;;;;;18.00;11.97;;;;;;;;;;6170418;28;20383;-84
2022/08/28 04:53:46;;;;;;;19.00;10.40;;;;;;;;;;6150023;28;20034;-84
2022/08/28 04:56:46;;;;;;;18.17;11.20;;;;;;;;;;6170223;28;20030;-84
2022/08/28 04:59:46;;;;;;;16.40;11.47;;;;;;;;;;6153927;28;20110;-85
2022/08/28 05:02:46;;;;;;;18.80;11.50;;;;;;;;;;6171010;28;20493;-84
2022/08/28 05:05:48;;;;;;;16.10;10.67;;;;;;;;;;6174416;28;20030;-84
2022/08/28 05:08:48;;;;;;;18.90;11.23;;;;;;;;;;6156166;28;20022;-84
2022/08/28 05:11:49;;;;;;;21.63;11.80;;;;;;;;;;6156638;28;20684;-84
2022/08/28 05:14:49;;;;;;;14.60;11.33;;;;;;;;;;6173564;28;20493;-84
2022/08/28 05:17:49;;;;;;;17.73;11.40;;;;;;;;;;6166170;28;20421;-84
2022/08/28 05:20:50;;;;;;;16.50;11.97;;;;;;;;;;6173647;28;20031;-84
2022/08/28 05:23:53;;;;;;;18.63;11.37;;;;;;;;;;6175098;28;20050;-84
2022/08/28 05:26:53;;;;;;;17.08;11.35;;;;;;;;;;6151664;28;20117;-85
2022/08/28 05:29:53;;;;;;;19.67;12.87;;;;;;;;;;6168871;28;20019;-84
2022/08/28 05:32:54;;;;;;;17.27;12.37;;;;;;;;;;6156926;28;20014;-84
2022/08/28 05:35:54;;;;;;;18.23;11.87;;;;;;;;;;6174538;28;20155;-84
2022/08/28 05:38:55;;;;;;;22.50;12.80;;;;;;;;;;6171799;28;20038;-84
2022/08/28 05:41:55;;;;;;;16.42;12.50;;;;;;;;;;6156486;28;20109;-84
2022/08/28 05:44:57;;;;;;;14.57;10.30;;;;;;;;;;6173785;28;20501;-84
2022/08/28 05:47:57;;;;;;;19.98;13.50;;;;;;;;;;6173889;28;20019;-85
2022/08/28 05:51:02;;;;;;;20.75;13.45;;;;;;;;;;6152323;28;20508;-85
2022/08/28 05:54:02;;;;;;;21.25;13.50;;;;;;;;;;6156268;28;20102;-85
2022/08/28 05:57:03;;;;;;;16.17;11.33;;;;;;;;;;6173206;28;20050;-84
2022/08/28 06:00:04;;;;;;;20.03;13.10;;;;;;;;;;6171663;28;20053;-84
2022/08/28 06:03:04;;;;;;;22.40;14.63;;;;;;;;;;6155248;28;20026;-84
2022/08/28 06:06:05;;;;;;;22.63;14.33;;;;;;;;;;6155200;28;20387;-85
2022/08/28 06:09:13;;;;;;;23.00;14.32;;;;;;;;;;6173010;28;20019;-85
2022/08/28 06:12:14;;;;;;;21.75;13.40;;;;;;;;;;6156575;28;20022;-85
2022/08/28 06:15:14;;;;;;;17.45;12.18;;;;;;;;;;6172125;28;20034;-85
2022/08/28 06:18:15;;;;;;;22.60;14.37;;;;;;;;;;6155180;28;20035;-85
2022/08/28 06:21:15;;;;;;;18.55;13.60;;;;;;;;;;6155406;28;20121;-85
2022/08/28 06:24:15;;;;;;;;;;;;;;;;;;6173167;28;20051;-85
2022/08/28 06:27:16;;;;;;;18.33;13.55;;;;;;;;;;6173153;28;19913;-85
2022/08/28 06:30:16;;;;;;;19.87;12.73;;;;;;;;;;6154444;28;20054;-85
2022/08/28 06:33:17;;;;;;;18.95;10.90;;;;;;;;;;6168059;28;20026;-85
2022/08/28 06:36:17;;;;;;;;;;;;;;;;;;6156086;28;20482;-85
2022/08/28 06:39:17;;;;;;;16.17;11.43;;;;;;;;;;6149102;28;19965;-85
2022/08/28 06:42:17;;;;;;;;;;;;;;;;;;6147487;28;20085;-85
2022/08/28 06:45:18;;;;;;;16.30;11.33;;;;;;;;;;6169214;28;19910;-85
2022/08/28 06:48:18;;;;;;;;;;;;;;;;;;6165154;28;20054;-84
2022/08/28 06:51:19;;;;;;;15.60;11.30;;;;;;;;;;6167727;28;19917;-85
2022/08/28 06:54:19;;;;;;;;;;;;;;;;;;6161832;28;20078;-85
2022/08/28 06:57:20;;;;;;;21.00;10.90;;;;;;;;;;6159405;28;19914;-85
2022/08/28 07:00:21;;;;;;;;;;;;;;;;;;6162545;28;20031;-85
2022/08/28 07:03:21;;;;;;;16.23;11.77;;;;;;;;;;6146508;28;19914;-85
2022/08/28 07:06:22;;;;;;;16.47;10.80;;;;;;;;;;6150474;28;20023;-85
2022/08/28 07:09:23;;;;;;;18.15;12.70;;;;;;;;;;6152817;28;20023;-84
2022/08/28 07:12:23;;;;;;;15.98;11.07;;;;;;;;;;6153525;28;20046;-84
2022/08/28 07:15:23;;;;;;;16.13;10.80;;;;;;;;;;6170084;28;20488;-84
2022/08/28 07:18:24;;;;;;;18.00;11.63;;;;;;;;;;6167037;28;20023;-84
2022/08/28 07:21:24;;;;;;;17.15;10.15;;;;;;;;;;6171278;28;20041;-84
2022/08/28 07:24:25;;;;;;;13.90;9.90;;;;;;;;;;6166467;28;20045;-85
2022/08/28 07:27:25;;;;;;;14.88;9.05;;;;;;;;;;6144929;28;20262;-84
2022/08/28 07:30:25;;;;;;;15.60;9.93;;;;;;;;;;6164851;28;20042;-84
2022/08/28 07:33:26;;;;;;;14.10;9.87;;;;;;;;;;6140243;28;20130;-83
2022/08/28 07:36:27;;;;;;;16.92;9.95;;;;;;;;;;6167368;28;20031;-84
2022/08/28 07:39:27;;;;;;;12.38;9.05;;;;;;;;;;6170252;28;20027;-83
2022/08/28 07:45:46;;;;;;;15.77;9.57;;;;;;;;;;6168697;28;20031;-83
2022/08/28 07:48:46;;;;;;;12.65;10.05;;;;;;;;;;6152999;28;20101;-83
2022/08/28 07:51:47;;;;;;;16.05;9.60;;;;;;;;;;6160195;28;20065;-83
2022/08/28 07:54:47;;;;;;;12.10;9.00;;;;;;;;;;6165181;28;20077;-83
2022/08/28 07:57:48;;;;;;;12.65;8.82;;;;;;;;;;6147116;28;20011;-83
2022/08/28 08:00:48;;;;;;;12.88;8.48;;;;;;;;;;6164235;28;20451;-83
2022/08/28 08:03:49;;;;;;;12.03;8.07;;;;;;;;;;6151249;28;20031;-83
2022/08/28 08:06:50;;;;;;;13.27;9.00;;;;;;;;;;6167497;28;20034;-83
2022/08/28 08:09:50;;;;;;;13.00;9.25;;;;;;;;;;6148836;28;20399;-83
2022/08/28 08:12:51;;;;;;;11.57;8.10;;;;;;;;;;6164702;28;20023;-83
2022/08/28 08:15:51;;;;;;;;;;;;;;;;;;6165794;28;20050;-83
2022/08/28 08:18:52;;;;;;;12.63;8.80;;;;;;;;;;6161455;28;20020;-83
2022/08/28 08:21:52;;;;;;;18.27;8.20;;;;;;;;;;6161797;28;20434;-83
2022/08/28 08:24:54;;;;;;;11.63;8.43;;;;;;;;;;6168876;28;20025;-83
2022/08/28 08:27:54;;;;;;;15.85;7.93;;;;;;;;;;6165043;28;20016;-83
2022/08/28 08:31:20;;;;;;;13.57;9.13;;;;;;;;;;6161588;28;20019;-83
2022/08/28 08:34:21;;;;;;;16.48;8.57;;;;;;;;;;6152045;28;20039;-83
2022/08/28 08:37:21;;;;;;;11.60;7.70;;;;;;;;;;6148694;28;20073;-83
2022/08/28 08:40:22;;;;;;;12.35;7.32;;;;;;;;;;6167643;28;20570;-83
2022/08/28 08:43:23;;;;;;;11.80;7.20;;;;;;;;;;6171833;28;20023;-83
2022/08/28 08:46:45;;;;;;;15.57;8.40;;;;;;;;;;6170453;28;20019;-83
2022/08/28 08:49:59;;;;;;;10.00;7.13;;;;;;;;;;6153952;28;20027;-83
2022/08/28 08:53:18;;;;;;;14.15;8.77;;;;;;;;;;6152152;28;20034;-83
2022/08/28 08:56:20;;;;;;;16.33;7.45;;;;;;;;;;6171461;28;20489;-82
2022/08/28 08:59:22;;;;;;;11.50;7.30;;;;;;;;;;6175204;28;20027;-82
2022/08/28 09:02:26;;;;;;;10.15;7.13;;;;;;;;;;6174802;28;20023;-82
2022/08/28 09:05:40;;;;;;;12.07;7.03;;;;;;;;;;6175970;28;20053;-82
2022/08/28 09:08:44;;;;;;;8.40;6.70;;;;;;;;;;6175272;28;20394;-83
2022/08/28 09:11:53;;;;;;;12.70;7.53;;;;;;;;;;6158427;28;20386;-82
2022/08/28 09:15:08;;;;;;;13.32;7.60;;;;;;;;;;6175595;28;20475;-82
2022/08/28 09:18:11;;;;;;;12.20;7.43;;;;;;;;;;6155095;28;20475;-83
2022/08/28 09:21:21;;;;;;;11.88;7.63;;;;;;;;;;6168179;28;20078;-82
2022/08/28 09:24:27;;;;;;;16.95;7.95;;;;;;;;;;6155634;28;20435;-81
2022/08/28 09:27:31;;;;;;;11.60;7.00;;;;;;;;;;6174773;28;20019;-82
2022/08/28 09:30:32;;;;;;;13.95;7.88;;;;;;;;;;6157366;28;20030;-82
2022/08/28 09:33:35;;;;;;;12.05;6.97;;;;;;;;;;6175909;28;20773;-83
2022/08/28 09:36:36;;;;;;;11.65;8.15;;;;;;;;;;6153167;28;20098;-82
2022/08/28 09:39:36;;;;;;;15.23;8.25;;;;;;;;;;6168301;28;20382;-82
2022/08/28 09:45:58;;;;;;;14.20;8.65;;;;;;;;;;6166940;28;20390;-82
2022/08/28 09:49:10;;;;;;;10.43;7.82;;;;;;;;;;6152664;28;20456;-83
2022/08/28 09:52:18;;;;;;;13.70;8.70;;;;;;;;;;6160668;28;20142;-82
2022/08/28 09:55:22;;;;;;;16.45;7.75;;;;;;;;;;6149018;28;20035;-82
2022/08/28 09:58:27;;;;;;;17.02;9.60;;;;;;;;;;6169256;28;20540;-82
2022/08/28 10:01:27;;;;;;;12.60;7.60;;;;;;;;;;6169636;28;20575;-82
2022/08/28 10:04:35;;;;;;;12.50;7.93;;;;;;;;;;6174292;28;20031;-82
2022/08/28 10:07:51;;;;;;;15.40;9.70;;;;;;;;;;6154103;28;20023;-82
2022/08/28 10:10:56;;;;;;;13.57;8.50;;;;;;;;;;6165779;28;20098;-82
2022/08/28 10:14:08;;;;;;;15.25;10.07;;;;;;;;;;6164504;28;20019;-82
2022/08/28 10:17:19;;;;;;;14.95;9.25;;;;;;;;;;6170481;28;20031;-82
2022/08/28 10:20:38;;;;;;;15.50;9.75;;;;;;;;;;6156471;28;20038;-82
2022/08/28 10:23:57;;;;;;;18.00;10.55;;;;;;;;;;6150300;28;20403;-82
2022/08/28 10:27:10;;;;;;;19.05;11.85;;;;;;;;;;6144698;28;20023;-82
2022/08/28 10:30:20;;;;;;;20.60;11.75;;;;;;;;;;6150794;28;20019;-82
2022/08/28 10:33:39;;;;;;;17.73;11.70;;;;;;;;;;6174302;28;20010;-82
2022/08/28 10:36:41;;;;;;;19.08;12.32;;;;;;;;;;6143363;28;20034;-82
2022/08/28 10:39:48;;;;;;;19.45;12.82;;;;;;;;;;6171922;28;20031;-82
2022/08/28 10:43:07;;;;;;;23.65;14.63;;;;;;;;;;6155739;28;20383;-82
2022/08/28 10:46:13;;;;;;;20.35;12.13;;;;;;;;;;6156624;28;20147;-82
2022/08/28 10:49:35;;;;;;;20.02;11.20;;;;;;;;;;6163906;28;20058;-82
2022/08/28 10:52:44;;;;;;;17.77;11.82;;;;;;;;;;6160733;28;20395;-82
2022/08/28 10:55:47;;;;;;;20.52;13.85;;;;;;;;;;6148796;28;20422;-82
2022/08/28 10:58:48;;;;;;;17.63;12.25;;;;;;;;;;6171945;28;20019;-83
2022/08/28 11:01:49;;;;;;;16.33;11.32;;;;;;;;;;6172550;28;20557;-82
2022/08/28 11:04:50;;;;;;;16.10;11.27;;;;;;;;;;6172942;28;20033;-83
2022/08/28 11:07:52;;;;;;;15.93;10.93;;;;;;;;;;6172540;28;20026;-83
2022/08/28 11:10:55;;;;;;;17.65;12.05;;;;;;;;;;6154605;28;20525;-83
2022/08/28 11:13:58;;;;;;;16.55;11.20;;;;;;;;;;6155729;28;20106;-83
2022/08/28 11:17:04;;;;;;;15.82;10.82;;;;;;;;;;6167380;28;20029;-83
2022/08/28 11:20:19;;;;;;;14.23;11.25;;;;;;;;;;6163535;28;20026;-83
2022/08/28 11:23:21;;;;;;;19.05;12.15;;;;;;;;;;6171901;28;20391;-83
2022/08/28 11:26:25;;;;;;;13.75;10.98;;;;;;;;;;6149735;28;20026;-83
2022/08/28 11:29:44;;;;;;;18.17;10.82;;;;;;;;;;6163802;28;20434;-82
2022/08/28 11:32:50;;;;;;;14.55;12.00;;;;;;;;;;6155314;28;20027;-83
2022/08/28 11:35:50;;;;;;;16.52;12.25;;;;;;;;;;6166112;28;20051;-83
2022/08/28 11:38:51;;;;;;;17.15;11.98;;;;;;;;;;6170021;28;20057;-83
2022/08/28 11:42:14;;;;;;;17.08;12.02;;;;;;;;;;6147480;28;20065;-83
2022/08/28 11:45:37;;;;;;;19.83;13.32;;;;;;;;;;6138784;28;22140;-83
2022/08/28 11:48:39;;;;;;;18.80;12.95;;;;;;;;;;6159433;28;20026;-83
2022/08/28 11:51:42;;;;;;;18.70;12.98;;;;;;;;;;6156850;28;20132;-83
2022/08/28 11:54:42;;;;;;;22.35;13.77;;;;;;;;;;6156562;28;20018;-83
2022/08/28 11:57:43;;;;;;;19.83;14.07;;;;;;;;;;6152069;28;20050;-83
2022/08/28 12:01:01;;;;;;;19.90;13.90;;;;;;;;;;6165825;28;20070;-83
2022/08/28 12:04:04;;;;;;;19.52;14.25;;;;;;;;;;6166554;28;20103;-83
2022/08/28 12:07:10;;;;;;;19.20;14.38;;;;;;;;;;6171142;28;20035;-82
2022/08/28 12:10:26;;;;;;;20.77;14.63;;;;;;;;;;6171356;28;20089;-82
2022/08/28 12:13:43;;;;;;;20.90;15.02;;;;;;;;;;6170887;28;20042;-82
2022/08/28 12:17:02;;;;;;;19.65;14.20;;;;;;;;;;6147810;28;20019;-82
2022/08/28 12:20:09;;;;;;;20.15;14.68;;;;;;;;;;6158996;28;20011;-82
2022/08/28 12:23:24;;;;;;;21.38;14.40;;;;;;;;;;6146992;28;20130;-82
2022/08/28 12:26:29;;;;;;;20.45;16.95;;;;;;;;;;6170079;28;20042;-82
2022/08/28 12:29:47;;;;;;;0.47;0.47;;;;;;;;;;6153924;28;20023;-83
2022/08/28 12:33:07;;;;;;;0.80;0.70;;;;;;;;;;6163224;28;20026;-83
2022/08/28 12:36:11;;;;;;;2.50;2.00;;;;;;;;;;6138558;28;20039;-83
2022/08/28 12:39:17;;;;;;;30.58;19.60;;;;;;;;;;6154104;28;20034;-84
2022/08/28 12:42:19;;;;;;;33.28;22.42;;;;;;;;;;6170303;28;20027;-83
2022/08/28 12:45:22;;;;;;;29.23;20.52;;;;;;;;;;6153199;28;20033;-83
2022/08/28 12:48:33;;;;;;;35.63;23.30;;;;;;;;;;6154016;28;20014;-84
2022/08/28 12:51:34;;;;;;;40.40;19.80;;;;;;;;;;6165401;28;20023;-82
2022/08/28 12:54:35;;;;;;;85.72;25.02;;;;;;;;;;6168890;28;20418;-87
2022/08/28 12:57:42;;;;;;;0.00;0.00;;;;;;;;;;6167629;28;20046;-82
2022/08/28 13:00:54;;;;;;;0.00;0.00;;;;;;;;;;6170676;28;20023;-82
2022/08/28 13:04:00;;;;;;;0.00;0.00;;;;;;;;;;6167398;28;20023;-82
2022/08/28 13:07:10;;;;;;;0.00;0.00;;;;;;;;;;6170631;28;20037;-83
2022/08/28 13:10:19;;;;;;;0.05;0.00;;;;;;;;;;6153340;28;20086;-83
2022/08/28 13:13:22;;;;;;;0.10;0.10;;;;;;;;;;6152360;28;20474;-83
2022/08/28 13:16:34;;;;;;;0.10;0.10;;;;;;;;;;6152799;28;20027;-83
2022/08/28 13:19:35;;;;;;;0.93;0.35;;;;;;;;;;6161073;28;20034;-84
2022/08/28 13:22:39;;;;;;;2.90;0.67;;;;;;;;;;6166546;28;20051;-82
2022/08/28 13:25:39;;;;;;;3.22;1.30;;;;;;;;;;6169830;28;20026;-81
2022/08/28 13:28:41;;;;;;;1.80;1.40;;;;;;;;;;6152558;28;20465;-82
2022/08/28 13:31:42;;;;;;;2.45;1.50;;;;;;;;;;6155850;28;20014;-82
2022/08/28 13:35:01;;;;;;;1.55;1.10;;;;;;;;;;6174499;28;20039;-82
2022/08/28 13:38:03;;;;;;;0.95;0.57;;;;;;;;;;6154616;28;20030;-82
2022/08/28 13:41:03;;;;;;;1.73;0.70;;;;;;;;;;6170966;28;20023;-83
2022/08/28 13:44:03;;;;;;;0.40;0.40;;;;;;;;;;6172799;28;20034;-84
2022/08/28 13:47:05;;;;;;;0.47;0.47;;;;;;;;;;6169758;28;20075;-85
2022/08/28 13:50:05;;;;;;;;;;;;;;;;;;6148507;28;20117;-85
2022/08/28 13:53:05;;;;;;;0.98;0.35;;;;;;;;;;6155288;28;19910;-85
2022/08/28 13:56:06;;;;;;;2.10;0.43;;;;;;;;;;6173808;28;20027;-85
2022/08/28 13:59:06;;;;;;;0.50;0.50;;;;;;;;;;6155686;28;20031;-85
2022/08/28 14:05:27;;;;;;;0.63;0.50;;;;;;;;;;6173429;28;20030;-86
2022/08/28 14:08:27;;;;;;;1.60;0.83;;;;;;;;;;6156142;28;20506;-86
2022/08/28 14:11:28;;;;;;;1.00;0.50;;;;;;;;;;6156391;28;20057;-86
2022/08/28 14:14:28;;;;;;;0.33;0.20;;;;;;;;;;6154736;28;20023;-86
2022/08/28 14:17:28;;;;;;;0.67;0.17;;;;;;;;;;6156225;28;20368;-87
2022/08/28 14:20:29;;;;;;;0.73;0.20;;;;;;;;;;6156345;28;20372;-87
2022/08/28 14:23:29;;;;;;;0.33;0.10;;;;;;;;;;6146725;28;20054;-86
2022/08/28 14:26:29;;;;;;;0.27;0.10;;;;;;;;;;6142673;28;20114;-86
2022/08/28 14:29:30;;;;;;;0.10;0.10;;;;;;;;;;6149002;28;20019;-86
2022/08/28 14:32:30;;;;;;;0.53;0.10;;;;;;;;;;6141499;28;20106;-85
2022/08/28 14:35:30;;;;;;;0.20;0.10;;;;;;;;;;6144090;28;20390;-85
2022/08/28 14:38:31;;;;;;;0.20;0.20;;;;;;;;;;6148082;28;20055;-85
2022/08/28 14:41:31;;;;;;;0.13;0.10;;;;;;;;;;6147314;28;20027;-85
2022/08/28 14:44:32;;;;;;;0.00;0.00;;;;;;;;;;6148207;28;20593;-85
2022/08/28 14:47:33;;;;;;;0.10;0.10;;;;;;;;;;6147351;28;20023;-86
2022/08/28 14:50:36;;;;;;;0.20;0.20;;;;;;;;;;6133936;28;20356;-85
2022/08/28 14:53:37;;;;;;;1.10;0.20;;;;;;;;;;6135667;28;20019;-85
2022/08/28 14:56:40;;;;;;;0.73;0.20;;;;;;;;;;6130563;28;20413;-86
2022/08/28 14:59:40;;;;;;;0.63;0.10;;;;;;;;;;6134919;29;20039;-86
2022/08/28 15:02:40;;;;;;;0.87;0.20;;;;;;;;;;6130972;28;20103;-85
2022/08/28 15:05:40;;;;;;;0.47;0.30;;;;;;;;;;6132592;28;20027;-85
2022/08/28 15:08:41;;;;;;;0.20;0.20;;;;;;;;;;6130568;28;20089;-85
2022/08/28 15:11:42;;;;;;;0.50;0.30;;;;;;;;;;6134473;28;20019;-85
2022/08/28 15:14:42;;;;;;;2.63;0.33;;;;;;;;;;6133596;28;20494;-85
2022/08/28 15:17:42;;;;;;;0.53;0.40;;;;;;;;;;6136032;28;20279;-85
2022/08/28 15:20:45;;;;;;;8.63;1.30;;;;;;;;;;6131869;28;20031;-83
2022/08/28 15:27:50;;;;;;;6.15;1.30;;;;;;;;;;6155109;28;20050;-83
2022/08/28 15:30:50;;;;;;;0.63;0.23;;;;;;;;;;6146952;28;20038;-83
2022/08/28 15:33:50;;;;;;;0.25;0.25;;;;;;;;;;6156265;28;20014;-83
2022/08/28 15:36:52;;;;;;;0.73;0.23;;;;;;;;;;6164261;28;20023;-83
2022/08/28 15:43:11;;;;;;;0.38;0.32;;;;;;;;;;6162943;28;19910;-84
2022/08/28 15:46:11;;;;;;;0.82;0.50;;;;;;;;;;6155011;28;20048;-85
2022/08/28 15:49:12;;;;;;;1.07;0.50;;;;;;;;;;6160192;28;20165;-85
2022/08/28 15:52:12;;;;;;;0.80;0.40;;;;;;;;;;6156736;28;20023;-85
2022/08/28 15:55:12;;;;;;;0.73;0.50;;;;;;;;;;6156638;28;20078;-85
2022/08/28 15:58:12;;;;;;;0.70;0.30;;;;;;;;;;6159075;28;20030;-85
2022/08/28 16:01:13;;;;;;;0.20;0.20;;;;;;;;;;6148310;28;20042;-86
2022/08/28 16:04:13;;;;;;;0.40;0.40;;;;;;;;;;6160017;28;20121;-86
2022/08/28 16:07:14;;;;;;;0.40;0.40;;;;;;;;;;6169794;28;20026;-87
2022/08/28 16:10:14;;;;;;;0.37;0.33;;;;;;;;;;6164242;28;20026;-86
2022/08/28 16:13:16;;;;;;;0.30;0.30;;;;;;;;;;6154855;28;20050;-86
2022/08/28 16:16:16;;;;;;;0.20;0.20;;;;;;;;;;6153819;28;20026;-86
2022/08/28 16:19:16;;;;;;;0.27;0.27;;;;;;;;;;6154346;28;20031;-86
2022/08/28 16:22:17;;;;;;;0.63;0.33;;;;;;;;;;6154051;28;20438;-86
2022/08/28 16:25:17;;;;;;;0.77;0.40;;;;;;;;;;6172854;28;20023;-87
2022/08/28 16:28:17;;;;;;;1.10;0.20;;;;;;;;;;6171638;28;20043;-87
2022/08/28 16:31:17;;;;;;;0.27;0.20;;;;;;;;;;6172041;28;20029;-87
2022/08/28 16:34:18;;;;;;;0.30;0.30;;;;;;;;;;6153482;28;20027;-87
2022/08/28 16:37:18;;;;;;;0.40;0.40;;;;;;;;;;6149399;28;20115;-87
2022/08/28 16:40:18;;;;;;;0.33;0.33;;;;;;;;;;6153230;28;20023;-87
2022/08/28 16:43:19;;;;;;;0.20;0.20;;;;;;;;;;6146698;28;20038;-86
2022/08/28 16:46:21;;;;;;;0.40;0.40;;;;;;;;;;6166402;28;20094;-86
2022/08/28 16:49:22;;;;;;;0.45;0.45;;;;;;;;;;6151403;28;20022;-87
2022/08/28 16:52:22;;;;;;;0.13;0.13;;;;;;;;;;6153278;28;20109;-87
2022/08/28 16:55:23;;;;;;;0.10;0.10;;;;;;;;;;6153977;28;20027;-87
2022/08/28 16:58:23;;;;;;;0.13;0.13;;;;;;;;;;6166546;28;20101;-87
2022/08/28 17:01:24;;;;;;;0.33;0.33;;;;;;;;;;6174768;28;20031;-87
2022/08/28 17:04:24;;;;;;;0.50;0.50;;;;;;;;;;6157093;28;20026;-87
2022/08/28 17:07:25;;;;;;;0.40;0.40;;;;;;;;;;6151892;28;20025;-87
2022/08/28 17:10:25;;;;;;;0.63;0.40;;;;;;;;;;6155384;28;20018;-86
2022/08/28 17:13:25;;;;;;;0.37;0.37;;;;;;;;;;6155937;28;20019;-86
2022/08/28 17:16:28;;;;;;;0.47;0.30;;;;;;;;;;6173408;28;20077;-86
2022/08/28 17:19:29;;;;;;;0.70;0.40;;;;;;;;;;6153300;28;20019;-87
2022/08/28 17:22:32;;;;;;;0.50;0.50;;;;;;;;;;6156951;28;20041;-86
2022/08/28 17:25:32;;;;;;;0.20;0.20;;;;;;;;;;6150046;28;20073;-87
2022/08/28 17:28:32;;;;;;;0.33;0.33;;;;;;;;;;6158145;28;20482;-88
2022/08/28 17:31:33;;;;;;;0.30;0.30;;;;;;;;;;6175515;28;20395;-87
2022/08/28 17:34:33;;;;;;;0.20;0.20;;;;;;;;;;6157732;28;20073;-87
2022/08/28 17:37:35;;;;;;;0.60;0.47;;;;;;;;;;6172067;28;20041;-87
2022/08/28 17:40:35;;;;;;;;;;;;;;;;;;6151102;28;20085;-88
2022/08/28 17:43:36;;;;;;;0.75;0.30;;;;;;;;;;6151435;28;20274;-87
2022/08/28 17:46:37;;;;;;;0.40;0.40;;;;;;;;;;6166290;28;20094;-87
2022/08/28 17:49:37;;;;;;;0.77;0.57;;;;;;;;;;6150453;28;20719;-87
2022/08/28 17:52:39;;;;;;;0.67;0.60;;;;;;;;;;6161709;28;20078;-88
2022/08/28 17:55:39;;;;;;;0.55;0.47;;;;;;;;;;6147394;28;20062;-87
2022/08/28 17:58:39;;;;;;;0.50;0.50;;;;;;;;;;6154024;28;20096;-87
2022/08/28 18:01:40;;;;;;;1.07;0.40;;;;;;;;;;6172927;28;20026;-87
2022/08/28 18:04:41;;;;;;;0.63;0.47;;;;;;;;;;6154932;28;20030;-87
2022/08/28 18:07:41;;;;;;;0.70;0.70;;;;;;;;;;6152789;28;20109;-88
2022/08/28 18:10:42;;;;;;;0.40;0.40;;;;;;;;;;6154332;28;20022;-87
2022/08/28 18:13:43;;;;;;;0.70;0.70;;;;;;;;;;6173839;28;20027;-88
2022/08/28 18:16:43;;;;;;;0.57;0.57;;;;;;;;;;6145776;28;20143;-88